sensor_id;sensor_type;location;lat;lon;timestamp;pressure;altitude;pressure_sealevel;temperature;humidity
60725;BME280;59881;36.722;-4.462;2023-03-14T00:02:19;101137.53;;;15.96;59.49
60725;BME280;59881;36.722;-4.462;2023-03-14T00:04:44;100885.69;;;14.49;59.31
60725;BME280;59881;36.722;-4.462;2023-03-14T00:07:11;101196.03;;;16.81;59.22
60725;BME280;59881;36.722;-4.462;2023-03-14T00:09:37;101191.69;;;16.80;58.94
60725;BME280;59881;36.722;-4.462;2023-03-14T00:12:03;100633.75;;;13.31;58.77
60725;BME280;59881;36.722;-4.462;2023-03-14T00:14:30;100662.25;;;12.70;58.86
60725;BME280;59881;36.722;-4.462;2023-03-14T00:16:56;100882.94;;;13.94;58.79
60725;BME280;59881;36.722;-4.462;2023-03-14T00:19:22;100601.38;;;12.94;58.55
60725;BME280;59881;36.722;-4.462;2023-03-14T00:21:47;101021.34;;;15.65;58.90
60725;BME280;59881;36.722;-4.462;2023-03-14T00:24:13;100814.19;;;14.26;58.90
60725;BME280;59881;36.722;-4.462;2023-03-14T00:26:38;101285.72;;;16.58;59.05
60725;BME280;59881;36.722;-4.462;2023-03-14T00:29:04;101176.09;;;16.54;59.05
60725;BME280;59881;36.722;-4.462;2023-03-14T00:31:29;100786.00;;;14.14;58.82
60725;BME280;59881;36.722;-4.462;2023-03-14T00:33:55;101177.44;;;16.49;58.92
60725;BME280;59881;36.722;-4.462;2023-03-14T00:36:20;101252.44;;;16.43;58.80
60725;BME280;59881;36.722;-4.462;2023-03-14T00:38:48;101167.47;;;16.41;58.85
60725;BME280;59881;36.722;-4.462;2023-03-14T00:41:22;100503.63;;;12.25;58.76
60725;BME280;59881;36.722;-4.462;2023-03-14T00:43:49;101183.41;;;16.41;59.02
60725;BME280;59881;36.722;-4.462;2023-03-14T00:46:15;101162.00;;;16.43;58.81
60725;BME280;59881;36.722;-4.462;2023-03-14T00:48:40;101249.63;;;16.44;58.66
60725;BME280;59881;36.722;-4.462;2023-03-14T00:51:07;100927.84;;;13.96;58.52
60725;BME280;59881;36.722;-4.462;2023-03-14T00:53:37;100489.69;;;11.76;58.55
60725;BME280;59881;36.722;-4.462;2023-03-14T00:56:05;101157.06;;;16.38;58.96
60725;BME280;59881;36.722;-4.462;2023-03-14T00:58:32;100714.19;;;13.29;58.86
60725;BME280;59881;36.722;-4.462;2023-03-14T01:00:58;101171.44;;;16.35;59.21
60725;BME280;59881;36.722;-4.462;2023-03-14T01:03:23;100199.84;;;10.43;59.17
60725;BME280;59881;36.722;-4.462;2023-03-14T01:05:49;100852.94;;;14.39;59.65
60725;BME280;59881;36.722;-4.462;2023-03-14T01:08:16;101173.78;;;16.29;59.78
60725;BME280;59881;36.722;-4.462;2023-03-14T01:10:41;101173.06;;;16.27;59.81
60725;BME280;59881;36.722;-4.462;2023-03-14T01:13:08;101183.13;;;16.23;59.86
60725;BME280;59881;36.722;-4.462;2023-03-14T01:15:35;101283.78;;;16.17;60.47
60725;BME280;59881;36.722;-4.462;2023-03-14T01:18:01;100855.25;;;14.10;60.21
60725;BME280;59881;36.722;-4.462;2023-03-14T01:20:27;101189.22;;;16.03;60.47
60725;BME280;59881;36.722;-4.462;2023-03-14T01:22:53;101185.97;;;15.99;60.51
60725;BME280;59881;36.722;-4.462;2023-03-14T01:25:18;101169.38;;;15.52;60.52
60725;BME280;59881;36.722;-4.462;2023-03-14T01:27:44;100971.81;;;14.21;60.06
60725;BME280;59881;36.722;-4.462;2023-03-14T01:30:11;101231.91;;;15.90;60.23
60725;BME280;59881;36.722;-4.462;2023-03-14T01:32:37;101254.38;;;15.86;60.45
60725;BME280;59881;36.722;-4.462;2023-03-14T01:35:04;101196.16;;;15.83;60.49
60725;BME280;59881;36.722;-4.462;2023-03-14T01:37:30;100665.66;;;11.26;60.12
60725;BME280;59881;36.722;-4.462;2023-03-14T01:39:56;100944.63;;;13.37;60.03
60725;BME280;59881;36.722;-4.462;2023-03-14T01:42:21;101360.28;;;15.79;60.37
60725;BME280;59881;36.722;-4.462;2023-03-14T01:44:58;101274.44;;;15.79;60.10
60725;BME280;59881;36.722;-4.462;2023-03-14T01:47:24;101210.78;;;15.77;60.29
60725;BME280;59881;36.722;-4.462;2023-03-14T01:50:06;101207.50;;;15.73;60.63
60725;BME280;59881;36.722;-4.462;2023-03-14T01:52:46;101247.75;;;14.88;60.37
60725;BME280;59881;36.722;-4.462;2023-03-14T01:55:16;101207.28;;;15.77;60.12
60725;BME280;59881;36.722;-4.462;2023-03-14T01:57:46;100963.06;;;14.32;59.86
60725;BME280;59881;36.722;-4.462;2023-03-14T02:00:16;101198.34;;;15.78;59.70
60725;BME280;59881;36.722;-4.462;2023-03-14T02:02:46;100560.34;;;11.84;59.24
60725;BME280;59881;36.722;-4.462;2023-03-14T02:05:15;101207.50;;;15.73;59.33
60725;BME280;59881;36.722;-4.462;2023-03-14T02:07:51;101201.47;;;15.71;59.23
60725;BME280;59881;36.722;-4.462;2023-03-14T02:10:21;101205.97;;;15.71;59.18
60725;BME280;59881;36.722;-4.462;2023-03-14T02:12:48;101208.84;;;15.68;59.38
60725;BME280;59881;36.722;-4.462;2023-03-14T02:15:14;100809.25;;;13.19;59.14
60725;BME280;59881;36.722;-4.462;2023-03-14T02:17:43;101150.56;;;15.32;59.33
60725;BME280;59881;36.722;-4.462;2023-03-14T02:23:03;100871.69;;;13.57;59.06
60725;BME280;59881;36.722;-4.462;2023-03-14T02:25:42;100974.56;;;13.61;58.64
60725;BME280;59881;36.722;-4.462;2023-03-14T02:28:10;100807.72;;;13.28;58.92
60725;BME280;59881;36.722;-4.462;2023-03-14T02:30:37;100631.81;;;12.17;58.69
60725;BME280;59881;36.722;-4.462;2023-03-14T02:33:06;101278.63;;;15.59;59.05
60725;BME280;59881;36.722;-4.462;2023-03-14T02:35:44;100626.53;;;12.17;58.91
60725;BME280;59881;36.722;-4.462;2023-03-14T02:40:56;101184.81;;;15.36;59.56
60725;BME280;59881;36.722;-4.462;2023-03-14T02:43:22;100641.00;;;12.00;59.72
60725;BME280;59881;36.722;-4.462;2023-03-14T02:45:49;101189.78;;;15.40;59.65
60725;BME280;59881;36.722;-4.462;2023-03-14T02:48:19;101324.22;;;15.41;59.75
60725;BME280;59881;36.722;-4.462;2023-03-14T02:50:47;101190.75;;;15.39;59.51
60725;BME280;59881;36.722;-4.462;2023-03-14T02:53:17;100932.41;;;13.47;59.49
60725;BME280;59881;36.722;-4.462;2023-03-14T02:55:48;101021.72;;;14.38;59.54
60725;BME280;59881;36.722;-4.462;2023-03-14T02:58:14;101019.69;;;14.31;59.51
60725;BME280;59881;36.722;-4.462;2023-03-14T03:00:40;100943.91;;;13.11;59.55
60725;BME280;59881;36.722;-4.462;2023-03-14T03:03:06;100851.13;;;13.25;59.70
60725;BME280;59881;36.722;-4.462;2023-03-14T03:05:32;101179.63;;;15.23;60.11
60725;BME280;59881;36.722;-4.462;2023-03-14T03:07:58;100594.38;;;10.89;59.81
60725;BME280;59881;36.722;-4.462;2023-03-14T03:10:23;101237.53;;;15.18;60.18
60725;BME280;59881;36.722;-4.462;2023-03-14T03:12:49;101162.28;;;15.19;59.91
60725;BME280;59881;36.722;-4.462;2023-03-14T03:15:16;100288.56;;;9.16;59.25
60725;BME280;59881;36.722;-4.462;2023-03-14T03:17:42;100383.72;;;9.99;59.21
60725;BME280;59881;36.722;-4.462;2023-03-14T03:20:08;101170.72;;;15.24;59.01
60725;BME280;59881;36.722;-4.462;2023-03-14T03:22:37;101162.03;;;15.22;58.95
60725;BME280;59881;36.722;-4.462;2023-03-14T03:25:05;100740.28;;;11.77;59.13
60725;BME280;59881;36.722;-4.462;2023-03-14T03:27:32;100774.53;;;12.88;58.70
60725;BME280;59881;36.722;-4.462;2023-03-14T03:29:58;100780.78;;;12.87;59.03
60725;BME280;59881;36.722;-4.462;2023-03-14T03:32:24;101161.41;;;15.18;58.56
60725;BME280;59881;36.722;-4.462;2023-03-14T03:34:50;100624.13;;;11.90;58.49
60725;BME280;59881;36.722;-4.462;2023-03-14T03:37:15;101169.53;;;15.17;58.34
60725;BME280;59881;36.722;-4.462;2023-03-14T03:39:41;101169.63;;;15.15;58.23
60725;BME280;59881;36.722;-4.462;2023-03-14T03:42:07;100444.66;;;10.31;57.77
60725;BME280;59881;36.722;-4.462;2023-03-14T03:44:32;100664.41;;;11.68;58.42
60725;BME280;59881;36.722;-4.462;2023-03-14T03:46:58;100686.38;;;12.06;58.01
60725;BME280;59881;36.722;-4.462;2023-03-14T03:49:23;101009.91;;;14.20;57.91
60725;BME280;59881;36.722;-4.462;2023-03-14T03:51:49;101133.66;;;14.88;58.29
60725;BME280;59881;36.722;-4.462;2023-03-14T03:54:15;101157.56;;;15.00;57.91
60725;BME280;59881;36.722;-4.462;2023-03-14T03:56:40;100359.50;;;9.94;57.83
60725;BME280;59881;36.722;-4.462;2023-03-14T03:59:06;100686.75;;;11.13;58.07
60725;BME280;59881;36.722;-4.462;2023-03-14T04:01:32;100922.75;;;12.24;58.35
60725;BME280;59881;36.722;-4.462;2023-03-14T04:03:57;101243.97;;;14.80;58.88
60725;BME280;59881;36.722;-4.462;2023-03-14T04:06:23;101140.06;;;14.39;58.83
60725;BME280;59881;36.722;-4.462;2023-03-14T04:08:49;101153.88;;;14.67;58.97
60725;BME280;59881;36.722;-4.462;2023-03-14T04:11:15;100583.72;;;10.39;58.71
60725;BME280;59881;36.722;-4.462;2023-03-14T04:13:40;101200.16;;;14.63;58.94
60725;BME280;59881;36.722;-4.462;2023-03-14T04:16:14;100693.06;;;11.23;58.82
60725;BME280;59881;36.722;-4.462;2023-03-14T04:18:41;100568.22;;;11.11;58.45
60725;BME280;59881;36.722;-4.462;2023-03-14T04:21:07;101262.13;;;14.62;59.17
60725;BME280;59881;36.722;-4.462;2023-03-14T04:23:32;101057.78;;;14.05;58.66
60725;BME280;59881;36.722;-4.462;2023-03-14T04:25:58;101145.13;;;14.54;58.64
60725;BME280;59881;36.722;-4.462;2023-03-14T04:28:24;101258.84;;;14.45;59.09
60725;BME280;59881;36.722;-4.462;2023-03-14T04:30:50;101222.19;;;14.28;59.15
60725;BME280;59881;36.722;-4.462;2023-03-14T04:33:16;100548.97;;;9.67;59.30
60725;BME280;59881;36.722;-4.462;2023-03-14T04:35:45;100645.50;;;11.25;59.27
60725;BME280;59881;36.722;-4.462;2023-03-14T04:38:11;101150.94;;;14.23;59.57
60725;BME280;59881;36.722;-4.462;2023-03-14T04:40:40;101145.88;;;14.20;60.02
60725;BME280;59881;36.722;-4.462;2023-03-14T04:43:07;101055.41;;;13.54;59.60
60725;BME280;59881;36.722;-4.462;2023-03-14T04:45:33;101178.34;;;14.11;59.78
60725;BME280;59881;36.722;-4.462;2023-03-14T04:47:58;100737.78;;;11.50;59.43
60725;BME280;59881;36.722;-4.462;2023-03-14T04:50:24;100929.25;;;12.57;59.68
60725;BME280;59881;36.722;-4.462;2023-03-14T04:52:50;100708.69;;;10.48;59.62
60725;BME280;59881;36.722;-4.462;2023-03-14T04:55:15;101105.84;;;11.85;59.51
60725;BME280;59881;36.722;-4.462;2023-03-14T04:57:41;100662.28;;;10.05;59.43
60725;BME280;59881;36.722;-4.462;2023-03-14T05:00:07;101210.56;;;13.81;59.83
60725;BME280;59881;36.722;-4.462;2023-03-14T05:02:34;101167.63;;;13.64;59.74
60725;BME280;59881;36.722;-4.462;2023-03-14T05:05:00;100533.66;;;9.46;59.59
60725;BME280;59881;36.722;-4.462;2023-03-14T05:07:25;101198.09;;;13.70;60.05
60725;BME280;59881;36.722;-4.462;2023-03-14T05:09:51;101105.44;;;12.31;60.04
60725;BME280;59881;36.722;-4.462;2023-03-14T05:12:19;101200.56;;;13.60;60.22
60725;BME280;59881;36.722;-4.462;2023-03-14T05:14:45;100095.75;;;6.74;59.93
60725;BME280;59881;36.722;-4.462;2023-03-14T05:17:11;100951.09;;;11.02;60.23
60725;BME280;59881;36.722;-4.462;2023-03-14T05:19:40;100448.69;;;8.63;60.06
60725;BME280;59881;36.722;-4.462;2023-03-14T05:22:06;100793.00;;;10.88;60.17
60725;BME280;59881;36.722;-4.462;2023-03-14T05:24:31;100518.94;;;9.29;60.25
60725;BME280;59881;36.722;-4.462;2023-03-14T05:26:57;101302.22;;;13.45;60.14
60725;BME280;59881;36.722;-4.462;2023-03-14T05:29:23;101217.75;;;13.42;60.25
60725;BME280;59881;36.722;-4.462;2023-03-14T05:31:48;100578.72;;;9.55;60.24
60725;BME280;59881;36.722;-4.462;2023-03-14T05:34:14;100738.78;;;10.17;60.42
60725;BME280;59881;36.722;-4.462;2023-03-14T05:36:39;100978.25;;;10.75;60.31
60725;BME280;59881;36.722;-4.462;2023-03-14T05:39:05;101241.34;;;13.32;60.21
60725;BME280;59881;36.722;-4.462;2023-03-14T05:41:30;100806.47;;;9.43;60.04
60725;BME280;59881;36.722;-4.462;2023-03-14T05:43:56;100994.88;;;11.59;60.50
60725;BME280;59881;36.722;-4.462;2023-03-14T05:46:21;101170.44;;;11.93;60.57
60725;BME280;59881;36.722;-4.462;2023-03-14T05:48:47;101378.88;;;13.19;60.52
60725;BME280;59881;36.722;-4.462;2023-03-14T05:51:12;100699.41;;;9.45;60.32
60725;BME280;59881;36.722;-4.462;2023-03-14T05:53:38;101245.25;;;13.14;60.95
60725;BME280;59881;36.722;-4.462;2023-03-14T05:56:04;101245.47;;;13.11;60.98
60725;BME280;59881;36.722;-4.462;2023-03-14T05:58:29;100624.50;;;8.20;60.43
60725;BME280;59881;36.722;-4.462;2023-03-14T06:00:55;101257.59;;;13.00;60.58
60725;BME280;59881;36.722;-4.462;2023-03-14T06:03:20;101206.28;;;12.10;60.77
60725;BME280;59881;36.722;-4.462;2023-03-14T06:05:46;100728.81;;;9.37;60.78
60725;BME280;59881;36.722;-4.462;2023-03-14T06:08:14;100778.91;;;9.20;60.84
60725;BME280;59881;36.722;-4.462;2023-03-14T06:10:40;101357.13;;;12.89;61.41
60725;BME280;59881;36.722;-4.462;2023-03-14T06:13:05;101300.09;;;12.84;61.27
60725;BME280;59881;36.722;-4.462;2023-03-14T06:15:31;101272.06;;;12.82;61.33
60725;BME280;59881;36.722;-4.462;2023-03-14T06:17:58;101319.94;;;11.51;61.22
60725;BME280;59881;36.722;-4.462;2023-03-14T06:20:23;101277.56;;;12.79;61.31
60725;BME280;59881;36.722;-4.462;2023-03-14T06:22:49;100985.81;;;10.53;61.20
60725;BME280;59881;36.722;-4.462;2023-03-14T06:25:15;100455.97;;;7.70;60.90
60725;BME280;59881;36.722;-4.462;2023-03-14T06:27:40;101288.34;;;12.76;61.41
60725;BME280;59881;36.722;-4.462;2023-03-14T06:30:07;101357.94;;;12.76;61.11
60725;BME280;59881;36.722;-4.462;2023-03-14T06:32:32;100984.06;;;10.95;60.96
60725;BME280;59881;36.722;-4.462;2023-03-14T06:34:58;101370.88;;;11.37;60.65
60725;BME280;59881;36.722;-4.462;2023-03-14T06:37:27;100320.75;;;7.37;60.27
60725;BME280;59881;36.722;-4.462;2023-03-14T06:39:53;100656.97;;;9.92;59.28
60725;BME280;59881;36.722;-4.462;2023-03-14T06:42:19;101310.09;;;14.46;58.03
60725;BME280;59881;36.722;-4.462;2023-03-14T06:44:45;100910.16;;;12.77;56.19
60725;BME280;59881;36.722;-4.462;2023-03-14T06:47:11;101308.44;;;15.85;54.04
60725;BME280;59881;36.722;-4.462;2023-03-14T06:49:37;101076.50;;;14.62;52.06
60725;BME280;59881;36.722;-4.462;2023-03-14T06:52:02;100984.75;;;14.48;50.05
60725;BME280;59881;36.722;-4.462;2023-03-14T06:54:28;101297.13;;;17.65;48.37
60725;BME280;59881;36.722;-4.462;2023-03-14T06:56:54;101371.72;;;18.17;46.64
60725;BME280;59881;36.722;-4.462;2023-03-14T06:59:19;100822.75;;;15.90;45.26
60725;BME280;59881;36.722;-4.462;2023-03-14T07:01:45;100939.53;;;17.13;44.07
60725;BME280;59881;36.722;-4.462;2023-03-14T07:04:11;100512.25;;;14.77;42.70
60725;BME280;59881;36.722;-4.462;2023-03-14T07:06:36;101076.09;;;18.98;42.04
60725;BME280;59881;36.722;-4.462;2023-03-14T07:09:02;101098.84;;;19.02;41.00
60725;BME280;59881;36.722;-4.462;2023-03-14T07:11:28;101237.31;;;20.63;40.38
60725;BME280;59881;36.722;-4.462;2023-03-14T07:13:54;100929.34;;;19.07;39.42
60725;BME280;59881;36.722;-4.462;2023-03-14T07:16:19;101098.09;;;20.63;38.40
60725;BME280;59881;36.722;-4.462;2023-03-14T07:18:45;101249.88;;;21.67;37.41
60725;BME280;59881;36.722;-4.462;2023-03-14T07:21:11;101176.88;;;22.06;36.47
60725;BME280;59881;36.722;-4.462;2023-03-14T07:23:38;101153.63;;;22.56;35.42
60725;BME280;59881;36.722;-4.462;2023-03-14T07:26:04;100943.88;;;21.62;34.34
60725;BME280;59881;36.722;-4.462;2023-03-14T07:28:29;101239.84;;;24.06;33.95
60725;BME280;59881;36.722;-4.462;2023-03-14T07:30:55;101241.34;;;24.63;32.71
60725;BME280;59881;36.722;-4.462;2023-03-14T07:33:21;100748.34;;;22.31;31.97
60725;BME280;59881;36.722;-4.462;2023-03-14T07:35:47;100900.06;;;23.74;31.05
60725;BME280;59881;36.722;-4.462;2023-03-14T07:38:14;101046.78;;;25.12;30.14
60725;BME280;59881;36.722;-4.462;2023-03-14T07:40:39;100855.13;;;24.85;29.03
60725;BME280;59881;36.722;-4.462;2023-03-14T07:43:05;101248.44;;;27.61;28.28
60725;BME280;59881;36.722;-4.462;2023-03-14T07:45:30;100931.31;;;25.58;28.02
60725;BME280;59881;36.722;-4.462;2023-03-14T07:47:56;101255.81;;;27.81;27.77
60725;BME280;59881;36.722;-4.462;2023-03-14T07:50:23;101243.66;;;28.32;27.03
60725;BME280;59881;36.722;-4.462;2023-03-14T07:52:49;101208.22;;;28.13;26.59
60725;BME280;59881;36.722;-4.462;2023-03-14T07:55:15;101254.34;;;28.53;26.68
60725;BME280;59881;36.722;-4.462;2023-03-14T07:57:40;101252.91;;;28.64;26.26
60725;BME280;59881;36.722;-4.462;2023-03-14T08:00:07;101031.94;;;27.68;25.63
60725;BME280;59881;36.722;-4.462;2023-03-14T08:02:33;101238.69;;;29.22;25.06
60725;BME280;59881;36.722;-4.462;2023-03-14T08:04:58;100987.19;;;27.79;25.12
60725;BME280;59881;36.722;-4.462;2023-03-14T08:07:24;101195.28;;;29.22;24.51
60725;BME280;59881;36.722;-4.462;2023-03-14T08:09:49;101243.19;;;29.55;24.19
60725;BME280;59881;36.722;-4.462;2023-03-14T08:12:15;101249.03;;;29.58;24.22
60725;BME280;59881;36.722;-4.462;2023-03-14T08:14:41;101251.31;;;29.61;24.43
60725;BME280;59881;36.722;-4.462;2023-03-14T08:17:07;101246.63;;;30.34;23.62
60725;BME280;59881;36.722;-4.462;2023-03-14T08:19:34;101119.91;;;30.07;22.74
60725;BME280;59881;36.722;-4.462;2023-03-14T08:22:00;101210.63;;;30.82;22.12
60725;BME280;59881;36.722;-4.462;2023-03-14T08:24:25;101259.97;;;31.35;21.79
60725;BME280;59881;36.722;-4.462;2023-03-14T08:26:51;101253.16;;;31.26;22.13
60725;BME280;59881;36.722;-4.462;2023-03-14T08:29:16;101256.31;;;31.97;21.10
60725;BME280;59881;36.722;-4.462;2023-03-14T08:31:42;101297.59;;;32.96;20.34
60725;BME280;59881;36.722;-4.462;2023-03-14T08:34:08;101275.75;;;33.32;19.66
60725;BME280;59881;36.722;-4.462;2023-03-14T08:36:33;101298.44;;;33.44;19.53
60725;BME280;59881;36.722;-4.462;2023-03-14T08:38:59;101302.94;;;33.62;19.43
60725;BME280;59881;36.722;-4.462;2023-03-14T08:41:25;101132.91;;;33.03;18.82
60725;BME280;59881;36.722;-4.462;2023-03-14T08:43:50;101305.09;;;34.29;18.50
60725;BME280;59881;36.722;-4.462;2023-03-14T08:46:16;101311.41;;;34.75;18.15
60725;BME280;59881;36.722;-4.462;2023-03-14T08:48:41;101314.97;;;35.10;17.40
60725;BME280;59881;36.722;-4.462;2023-03-14T08:51:07;101316.44;;;35.34;17.10
60725;BME280;59881;36.722;-4.462;2023-03-14T08:53:33;101311.88;;;35.84;16.70
60725;BME280;59881;36.722;-4.462;2023-03-14T08:55:59;101045.97;;;34.75;16.35
60725;BME280;59881;36.722;-4.462;2023-03-14T08:58:24;101290.41;;;36.52;15.85
60725;BME280;59881;36.722;-4.462;2023-03-14T09:00:50;101296.16;;;36.23;16.12
60725;BME280;59881;36.722;-4.462;2023-03-14T09:03:16;101315.63;;;36.81;15.68
60725;BME280;59881;36.722;-4.462;2023-03-14T09:05:42;101343.19;;;36.97;15.30
60725;BME280;59881;36.722;-4.462;2023-03-14T09:08:07;101292.53;;;37.15;15.42
60725;BME280;59881;36.722;-4.462;2023-03-14T09:10:33;101049.34;;;35.59;15.52
60725;BME280;59881;36.722;-4.462;2023-03-14T09:12:58;101298.50;;;38.27;14.68
60725;BME280;59881;36.722;-4.462;2023-03-14T09:15:25;101296.59;;;38.95;14.31
60725;BME280;59881;36.722;-4.462;2023-03-14T09:17:51;101254.72;;;39.03;13.81
60725;BME280;59881;36.722;-4.462;2023-03-14T09:20:17;101304.81;;;39.96;13.60
60725;BME280;59881;36.722;-4.462;2023-03-14T09:22:42;101311.00;;;40.61;13.18
60725;BME280;59881;36.722;-4.462;2023-03-14T09:25:08;101343.69;;;40.83;12.04
60725;BME280;59881;36.722;-4.462;2023-03-14T09:27:34;101308.03;;;41.83;11.41
60725;BME280;59881;36.722;-4.462;2023-03-14T09:30:00;101291.03;;;42.47;10.58
60725;BME280;59881;36.722;-4.462;2023-03-14T09:32:26;101296.66;;;42.74;10.00
60725;BME280;59881;36.722;-4.462;2023-03-14T09:34:51;101066.88;;;41.62;9.88
60725;BME280;59881;36.722;-4.462;2023-03-14T09:37:17;101339.59;;;43.65;9.20
60725;BME280;59881;36.722;-4.462;2023-03-14T09:39:42;101293.34;;;44.11;9.87
60725;BME280;59881;36.722;-4.462;2023-03-14T09:42:13;101302.28;;;44.75;9.11
60725;BME280;59881;36.722;-4.462;2023-03-14T09:44:51;101077.91;;;43.78;8.34
60725;BME280;59881;36.722;-4.462;2023-03-14T09:47:18;101303.16;;;45.82;7.58
60725;BME280;59881;36.722;-4.462;2023-03-14T09:49:45;101289.09;;;46.13;7.59
60725;BME280;59881;36.722;-4.462;2023-03-14T09:52:37;101285.59;;;46.51;7.29
60725;BME280;59881;36.722;-4.462;2023-03-14T09:55:16;101290.13;;;46.82;7.53
60725;BME280;59881;36.722;-4.462;2023-03-14T09:57:43;101056.06;;;45.88;7.43
60725;BME280;59881;36.722;-4.462;2023-03-14T10:00:13;101300.50;;;47.92;6.63
60725;BME280;59881;36.722;-4.462;2023-03-14T10:02:42;101294.50;;;48.35;6.57
60725;BME280;59881;36.722;-4.462;2023-03-14T10:05:19;101306.06;;;49.04;6.04
60725;BME280;59881;36.722;-4.462;2023-03-14T10:07:44;101298.22;;;49.46;6.17
60725;BME280;59881;36.722;-4.462;2023-03-14T10:10:19;101283.97;;;49.64;5.69
60725;BME280;59881;36.722;-4.462;2023-03-14T10:12:47;101282.00;;;49.64;5.89
60725;BME280;59881;36.722;-4.462;2023-03-14T10:15:15;100819.50;;;46.84;5.99
60725;BME280;59881;36.722;-4.462;2023-03-14T10:17:49;101204.84;;;49.26;6.28
60725;BME280;59881;36.722;-4.462;2023-03-14T10:20:36;101266.44;;;49.79;6.20
60725;BME280;59881;36.722;-4.462;2023-03-14T10:23:05;100859.72;;;47.65;6.68
60725;BME280;59881;36.722;-4.462;2023-03-14T10:25:34;101234.09;;;50.38;5.73
60725;BME280;59881;36.722;-4.462;2023-03-14T10:28:01;101267.84;;;50.29;6.27
60725;BME280;59881;36.722;-4.462;2023-03-14T10:33:20;101259.09;;;50.31;6.62
60725;BME280;59881;36.722;-4.462;2023-03-14T10:36:14;101256.03;;;51.00;6.32
60725;BME280;59881;36.722;-4.462;2023-03-14T10:38:41;101205.81;;;51.30;6.04
60725;BME280;59881;36.722;-4.462;2023-03-14T10:41:24;101229.59;;;51.17;5.88
60725;BME280;59881;36.722;-4.462;2023-03-14T10:43:53;101251.28;;;51.74;6.18
60725;BME280;59881;36.722;-4.462;2023-03-14T10:46:23;101225.44;;;52.08;6.17
60725;BME280;59881;36.722;-4.462;2023-03-14T10:48:49;101065.19;;;51.54;5.32
60725;BME280;59881;36.722;-4.462;2023-03-14T10:53:47;101169.66;;;48.60;7.01
60725;BME280;59881;36.722;-4.462;2023-03-14T10:56:16;101242.47;;;47.76;7.69
60725;BME280;59881;36.722;-4.462;2023-03-14T10:58:49;101242.94;;;44.17;9.11
60725;BME280;59881;36.722;-4.462;2023-03-14T11:01:27;101177.16;;;36.62;13.62
60725;BME280;59881;36.722;-4.462;2023-03-14T11:04:23;101267.31;;;31.53;18.02
60725;BME280;59881;36.722;-4.462;2023-03-14T11:07:11;101258.69;;;28.34;20.92
60725;BME280;59881;36.722;-4.462;2023-03-14T11:15:31;100916.22;;;22.73;25.47
60725;BME280;59881;36.722;-4.462;2023-03-14T11:20:52;101251.31;;;24.00;26.80
60725;BME280;59881;36.722;-4.462;2023-03-14T11:23:31;101250.56;;;23.74;27.05
60725;BME280;59881;36.722;-4.462;2023-03-14T11:31:48;101253.06;;;23.37;27.60
60725;BME280;59881;36.722;-4.462;2023-03-14T11:34:20;101245.38;;;23.33;27.69
60725;BME280;59881;36.722;-4.462;2023-03-14T11:37:32;101247.53;;;23.38;27.44
60725;BME280;59881;36.722;-4.462;2023-03-14T11:39:41;101244.84;;;23.38;27.73
60725;BME280;59881;36.722;-4.462;2023-03-14T11:42:12;100909.00;;;21.21;27.65
60725;BME280;59881;36.722;-4.462;2023-03-14T11:44:39;101247.38;;;23.31;27.97
60725;BME280;59881;36.722;-4.462;2023-03-14T11:47:12;101249.56;;;23.28;27.98
60725;BME280;59881;36.722;-4.462;2023-03-14T11:52:28;101138.84;;;22.52;28.06
60725;BME280;59881;36.722;-4.462;2023-03-14T11:55:07;101260.69;;;23.00;27.92
60725;BME280;59881;36.722;-4.462;2023-03-14T11:57:36;100970.63;;;21.38;27.69
60725;BME280;59881;36.722;-4.462;2023-03-14T12:00:13;101227.59;;;23.08;27.56
60725;BME280;59881;36.722;-4.462;2023-03-14T12:03:07;101232.47;;;23.04;27.63
60725;BME280;59881;36.722;-4.462;2023-03-14T12:06:16;101225.91;;;23.07;27.66
60725;BME280;59881;36.722;-4.462;2023-03-14T12:08:56;101229.97;;;23.03;27.71
60725;BME280;59881;36.722;-4.462;2023-03-14T12:11:32;101224.25;;;23.06;27.43
60725;BME280;59881;36.722;-4.462;2023-03-14T12:13:59;100860.09;;;20.95;27.51
60725;BME280;59881;36.722;-4.462;2023-03-14T12:16:32;101209.41;;;23.26;27.14
60725;BME280;59881;36.722;-4.462;2023-03-14T12:22:41;100820.06;;;21.09;27.32
60725;BME280;59881;36.722;-4.462;2023-03-14T12:24:47;101267.34;;;23.45;26.63
60725;BME280;59881;36.722;-4.462;2023-03-14T12:27:47;101200.94;;;23.46;26.79
60725;BME280;59881;36.722;-4.462;2023-03-14T12:30:39;101194.38;;;23.48;26.72
60725;BME280;59881;36.722;-4.462;2023-03-14T12:35:58;101191.63;;;23.65;26.78
60725;BME280;59881;36.722;-4.462;2023-03-14T12:38:29;101172.28;;;23.69;26.97
60725;BME280;59881;36.722;-4.462;2023-03-14T12:43:29;101260.66;;;23.72;26.09
60725;BME280;59881;36.722;-4.462;2023-03-14T12:46:24;101178.28;;;23.80;25.52
60725;BME280;59881;36.722;-4.462;2023-03-14T12:48:54;101291.75;;;23.83;25.18
60725;BME280;59881;36.722;-4.462;2023-03-14T12:51:41;101189.00;;;23.88;25.54
60725;BME280;59881;36.722;-4.462;2023-03-14T12:56:59;101150.25;;;23.97;25.91
60725;BME280;59881;36.722;-4.462;2023-03-14T12:59:34;101149.06;;;24.00;25.87
60725;BME280;59881;36.722;-4.462;2023-03-14T13:04:36;101154.09;;;24.03;26.17
60725;BME280;59881;36.722;-4.462;2023-03-14T13:07:03;101065.31;;;23.48;26.03
60725;BME280;59881;36.722;-4.462;2023-03-14T13:12:00;101143.50;;;24.01;26.39
60725;BME280;59881;36.722;-4.462;2023-03-14T13:14:31;101126.97;;;24.04;25.95
60725;BME280;59881;36.722;-4.462;2023-03-14T13:17:01;101231.31;;;24.02;24.87
60725;BME280;59881;36.722;-4.462;2023-03-14T13:19:29;100956.56;;;22.97;24.69
60725;BME280;59881;36.722;-4.462;2023-03-14T13:22:04;100701.44;;;20.84;24.64
60725;BME280;59881;36.722;-4.462;2023-03-14T13:24:33;101117.75;;;24.07;24.62
60725;BME280;59881;36.722;-4.462;2023-03-14T13:27:00;100598.03;;;20.34;25.13
60725;BME280;59881;36.722;-4.462;2023-03-14T13:29:30;100893.59;;;21.81;25.09
60725;BME280;59881;36.722;-4.462;2023-03-14T13:32:00;100457.28;;;19.18;25.06